»·PEaware :: UAL8585 KBOI-KJAC

UAL8585 :: KBOI-KJAC

FLIGHT INFORMATION

Flight Status: Arrived
Operator:
United Airlines
More flights by this operator :: More flights under this callsign
Pilot: Sergei F. (8485)
Aircraft: BOEING 737-600
(B736)
More flights by this aircraft type
Origin: KBOI Boise Air Terminal/Gowen
United States
Destination: KJAC Jackson Hole
United States
More flights between these airports :: More routes between these airports
Route: BOI3 BOI FETHR DBS DNW
File this flight plan on PilotEdge
Remarks:
Altitude:
(Current/Filed)
37,000ft
Speed:
(Current/Filed)
453kts
Departed: 02-Dec-23 06:52 PM
Arrived: 02-Dec-23 07:41 PM
Distance/Time
Traveled:
238nm/0:49
Distance/Time
To Go:
Arrived

Flight Plot

Page will automatically refresh every two minutes.

Flight plan parsing failed; only flown route is shown


Map Options




Map Legend


Flown Route
Filed Route
Departure Airport
Arrival Airport
Navaid (VOR, NDB)
Fix

Horizontal Profiles

Position Reports

Time Latitude Longitude Heading Altitude Ground
Speed
02-Dec-23 18:04 43.567161 -116.218461 292 2880ft 0kts
02-Dec-23 18:05 43.567161 -116.218461 292 2880ft 0kts
02-Dec-23 18:06 43.567161 -116.218461 292 2880ft 0kts
02-Dec-23 18:07 43.567161 -116.218461 292 2880ft 0kts
02-Dec-23 18:08 43.567161 -116.218461 292 2880ft 0kts
02-Dec-23 18:09 43.567161 -116.218461 292 2880ft 0kts
02-Dec-23 18:10 43.567161 -116.218461 292 2880ft 0kts
02-Dec-23 18:11 43.567161 -116.218461 292 2880ft 0kts
02-Dec-23 18:12 43.567161 -116.218461 292 2880ft 0kts
02-Dec-23 18:13 43.567161 -116.218461 292 2880ft 0kts
02-Dec-23 18:14 43.567161 -116.218461 292 2880ft 0kts
02-Dec-23 18:15 43.567161 -116.218461 292 2880ft 0kts
02-Dec-23 18:16 43.567161 -116.218461 292 2880ft 0kts
02-Dec-23 18:17 43.567161 -116.218461 292 2880ft 0kts
02-Dec-23 18:18 43.567161 -116.218461 292 2880ft 0kts
02-Dec-23 18:19 43.567161 -116.218461 292 2880ft 0kts
02-Dec-23 18:20 43.567161 -116.218461 292 2880ft 0kts
02-Dec-23 18:21 43.567161 -116.218461 292 2880ft 0kts
02-Dec-23 18:22 43.567161 -116.218461 292 2880ft 0kts
02-Dec-23 18:23 43.567161 -116.218461 292 2880ft 0kts
02-Dec-23 18:24 43.567161 -116.218461 292 2880ft 0kts
02-Dec-23 18:25 43.567161 -116.218461 292 2880ft 0kts
02-Dec-23 18:26 43.567161 -116.218461 292 2880ft 0kts
02-Dec-23 18:27 43.567161 -116.218461 292 2880ft 0kts
02-Dec-23 18:28 43.567161 -116.218461 292 2880ft 0kts
02-Dec-23 18:29 43.567161 -116.218461 292 2880ft 0kts
02-Dec-23 18:30 43.567161 -116.218461 292 2880ft 0kts
02-Dec-23 18:31 43.567161 -116.218461 292 2880ft 0kts
02-Dec-23 18:32 43.567161 -116.218461 292 2880ft 0kts
02-Dec-23 18:33 43.567106 -116.218275 292 2880ft 1kts
02-Dec-23 18:34 43.567123 -116.217716 221 2880ft 1kts
02-Dec-23 18:35 43.567442 -116.217586 175 2880ft 1kts
02-Dec-23 18:36 43.567190 -116.217547 174 2880ft 0kts
02-Dec-23 18:38 43.567190 -116.217547 174 2880ft 0kts
02-Dec-23 18:39 43.567190 -116.217547 174 2880ft 0kts
02-Dec-23 18:40 43.567190 -116.217547 174 2880ft 0kts
02-Dec-23 18:41 43.567190 -116.217547 174 2880ft 0kts
02-Dec-23 18:42 43.566829 -116.217503 175 2880ft 5kts
02-Dec-23 18:43 43.565371 -116.217343 175 2880ft 4kts
02-Dec-23 18:44 43.565169 -116.218354 266 2879ft 4kts
02-Dec-23 18:45 43.564659 -116.217118 116 2880ft 7kts
02-Dec-23 18:46 43.563447 -116.213582 115 2880ft 10kts
02-Dec-23 18:47 43.562469 -116.210701 115 2881ft 8kts
02-Dec-23 18:48 43.561150 -116.206864 115 2880ft 11kts
02-Dec-23 18:49 43.559956 -116.203343 115 2880ft 8kts
02-Dec-23 18:50 43.559151 -116.202557 207 2880ft 4kts
02-Dec-23 18:51 43.558744 -116.203317 295 2880ft 0kts
02-Dec-23 18:52 43.568880 -116.232583 295 3729ft 166kts
02-Dec-23 18:53 43.588016 -116.292435 294 7820ft 169kts
02-Dec-23 18:54 43.585324 -116.358327 223 10831ft 244kts
02-Dec-23 18:55 43.505224 -116.330440 128 13449ft 373kts
02-Dec-23 18:56 43.496936 -116.188185 74 16796ft 387kts
02-Dec-23 18:57 43.512952 -116.037253 74 19961ft 409kts
02-Dec-23 18:58 43.526498 -115.877164 74 22892ft 431kts
02-Dec-23 18:59 43.540057 -115.709254 72 25457ft 449kts
02-Dec-23 19:00 43.553685 -115.536746 70 28383ft 450kts
02-Dec-23 19:01 43.567604 -115.360133 70 30088ft 478kts
02-Dec-23 19:02 43.592374 -115.179771 60 31514ft 481kts
02-Dec-23 19:03 43.626788 -114.998090 61 33029ft 493kts
02-Dec-23 19:04 43.659177 -114.815808 61 34558ft 488kts
02-Dec-23 19:04 43.685994 -114.664233 62 35707ft 488kts
02-Dec-23 19:05 43.717979 -114.481347 63 36774ft 487kts
02-Dec-23 19:07 43.755002 -114.267664 64 36894ft 490kts
02-Dec-23 19:08 43.786330 -114.084401 64 36897ft 487kts
02-Dec-23 19:09 43.817364 -113.901761 64 36873ft 489kts
02-Dec-23 19:09 43.843081 -113.748357 64 36858ft 491kts
02-Dec-23 19:10 43.873742 -113.563846 65 36864ft 491kts
02-Dec-23 19:11 43.904076 -113.379328 65 36862ft 491kts
02-Dec-23 19:13 43.939070 -113.163912 66 36871ft 490kts
02-Dec-23 19:13 43.963820 -113.009972 66 36865ft 491kts
02-Dec-23 19:14 43.993304 -112.824644 66 36879ft 490kts
02-Dec-23 19:15 44.022284 -112.640148 67 36758ft 479kts
02-Dec-23 19:16 44.049674 -112.463856 64 34247ft 460kts
02-Dec-23 19:17 44.076056 -112.292980 63 31135ft 449kts
02-Dec-23 19:18 44.083377 -112.110960 82 27003ft 470kts
02-Dec-23 19:19 44.081866 -111.933370 82 23918ft 444kts
02-Dec-23 19:20 44.085864 -111.766992 82 20927ft 415kts
02-Dec-23 19:21 44.094874 -111.611982 82 18150ft 392kts
02-Dec-23 19:22 44.106385 -111.464853 81 15293ft 371kts
02-Dec-23 19:23 44.116713 -111.323736 81 13768ft 357kts
02-Dec-23 19:24 44.126366 -111.187046 81 13193ft 358kts
02-Dec-23 19:25 44.136615 -111.048783 81 13168ft 359kts
02-Dec-23 19:26 44.147186 -110.910305 81 13163ft 360kts
02-Dec-23 19:27 44.134299 -110.773568 101 12213ft 353kts
02-Dec-23 19:28 44.116436 -110.649877 101 12114ft 300kts
02-Dec-23 19:29 44.078482 -110.559332 154 12122ft 259kts
02-Dec-23 19:30 44.011873 -110.532996 194 12129ft 239kts
02-Dec-23 19:31 43.950811 -110.562769 211 12112ft 234kts
02-Dec-23 19:32 43.892810 -110.596114 212 12108ft 221kts
02-Dec-23 19:33 43.838518 -110.624345 211 11373ft 200kts
02-Dec-23 19:34 43.787701 -110.649496 211 10294ft 187kts
02-Dec-23 19:35 43.742823 -110.671388 213 9323ft 146kts
02-Dec-23 19:36 43.707855 -110.688621 208 8440ft 131kts
02-Dec-23 19:37 43.673874 -110.705226 196 7573ft 127kts
02-Dec-23 19:38 43.640484 -110.721525 202 7023ft 128kts
02-Dec-23 19:39 43.608093 -110.737423 199 6438ft 63kts
02-Dec-23 19:40 43.600454 -110.741178 199 6431ft 8kts
02-Dec-23 19:41 43.599717 -110.739906 27 6431ft 6kts
02-Dec-23 19:42 43.601286 -110.739124 18 6432ft 5kts
02-Dec-23 19:43 43.602738 -110.738411 19 6432ft 5kts
02-Dec-23 19:44 43.604071 -110.737764 19 6430ft 4kts
02-Dec-23 19:45 43.604294 -110.736786 109 6432ft 1kts
02-Dec-23 19:46 43.604283 -110.736742 109 6432ft 0kts
02-Dec-23 19:47 43.604283 -110.736742 109 6432ft 0kts
02-Dec-23 19:48 43.604283 -110.736742 109 6432ft 0kts
02-Dec-23 19:49 43.604283 -110.736742 109 6432ft 0kts
02-Dec-23 19:50 43.604283 -110.736742 109 6432ft 0kts
02-Dec-23 19:51 43.604283 -110.736742 109 6432ft 0kts
02-Dec-23 19:52 43.604283 -110.736742 109 6432ft 0kts
02-Dec-23 19:53 43.604283 -110.736742 109 6432ft 0kts
02-Dec-23 19:54 43.604283 -110.736742 109 6432ft 0kts

Navigation Log

Ident Type
Flight plan parsing failed, navigation log unavailable